Fort Qu'Appelle, Canada
Current Conditions -  °F | °C
As of 6:00 PM on Sunday 21 Dec 2014 (Local Time) from CYQR Reporting Station
Scattered Clouds Scattered Clouds  
Wind Chill: 12°   Ceiling: Unl
Heat Index: 23°   Visibility: 15mi
Dew Point: 21°   Wind: 10mph
Humidity: 93%   Direction: 130°SE
Pressure: 29.38"   Gusts: NA
Location:  50.77°N, 103.78°W
Report Text: CYQR 220000Z 13009KT 15SM FEW120 SCT260 M05/M06 A2938 RMK AC1CI2 SLP986
Loading
Personal Weather Stations






























Interactive Weather Map New forecast layout! Learn more

10-Day Weather Forecast

Advertisements
Track Severe Weather on mobile